sensor_id;sensor_type;location;lat;lon;timestamp;pressure;altitude;pressure_sealevel;temperature;humidity
78685;BME280;68002;52.310;6.990;2023-04-29T00:01:16;100898.25;;;10.25;89.53
78685;BME280;68002;52.310;6.990;2023-04-29T00:03:42;100903.88;;;10.22;89.65
78685;BME280;68002;52.310;6.990;2023-04-29T00:06:07;100906.13;;;10.26;88.93
78685;BME280;68002;52.310;6.990;2023-04-29T00:08:32;100911.63;;;10.25;89.60
78685;BME280;68002;52.310;6.990;2023-04-29T00:10:57;100899.78;;;10.18;89.70
78685;BME280;68002;52.310;6.990;2023-04-29T00:13:23;100911.19;;;10.20;89.28
78685;BME280;68002;52.310;6.990;2023-04-29T00:15:48;100907.13;;;10.25;88.82
78685;BME280;68002;52.310;6.990;2023-04-29T00:18:13;100910.47;;;10.18;89.64
78685;BME280;68002;52.310;6.990;2023-04-29T00:20:38;100913.53;;;10.13;89.77
78685;BME280;68002;52.310;6.990;2023-04-29T00:23:04;100908.94;;;10.25;89.06
78685;BME280;68002;52.310;6.990;2023-04-29T00:25:29;100912.00;;;10.20;88.88
78685;BME280;68002;52.310;6.990;2023-04-29T00:27:54;100914.97;;;10.17;89.40
78685;BME280;68002;52.310;6.990;2023-04-29T00:30:20;100912.81;;;10.11;90.27
78685;BME280;68002;52.310;6.990;2023-04-29T00:32:45;100911.84;;;10.12;89.97
78685;BME280;68002;52.310;6.990;2023-04-29T00:35:10;100914.38;;;10.13;90.09
78685;BME280;68002;52.310;6.990;2023-04-29T00:37:36;100918.31;;;10.09;89.98
78685;BME280;68002;52.310;6.990;2023-04-29T00:40:01;100931.13;;;10.16;89.68
78685;BME280;68002;52.310;6.990;2023-04-29T00:42:27;100934.53;;;10.18;89.71
78685;BME280;68002;52.310;6.990;2023-04-29T00:44:53;100920.13;;;10.09;89.34
78685;BME280;68002;52.310;6.990;2023-04-29T00:47:18;100934.00;;;10.24;89.50
78685;BME280;68002;52.310;6.990;2023-04-29T00:49:43;100930.72;;;10.20;89.46
78685;BME280;68002;52.310;6.990;2023-04-29T00:52:10;100935.94;;;10.22;88.97
78685;BME280;68002;52.310;6.990;2023-04-29T00:54:36;100941.88;;;10.25;89.29
78685;BME280;68002;52.310;6.990;2023-04-29T00:57:03;100935.41;;;10.28;88.96
78685;BME280;68002;52.310;6.990;2023-04-29T00:59:28;100938.63;;;10.22;88.86
78685;BME280;68002;52.310;6.990;2023-04-29T01:01:53;100948.47;;;10.21;88.95
78685;BME280;68002;52.310;6.990;2023-04-29T01:04:18;100943.56;;;10.26;88.19
78685;BME280;68002;52.310;6.990;2023-04-29T01:15:20;100957.78;;;10.27;88.10
78685;BME280;68002;52.310;6.990;2023-04-29T01:17:55;100962.78;;;10.20;88.79
78685;BME280;68002;52.310;6.990;2023-04-29T01:20:25;100963.13;;;10.27;88.47
78685;BME280;68002;52.310;6.990;2023-04-29T01:22:50;100968.03;;;10.22;88.86
78685;BME280;68002;52.310;6.990;2023-04-29T01:25:15;100974.75;;;10.16;88.75
78685;BME280;68002;52.310;6.990;2023-04-29T01:30:30;100982.78;;;10.16;89.02
78685;BME280;68002;52.310;6.990;2023-04-29T01:33:22;100984.59;;;10.16;88.23
78685;BME280;68002;52.310;6.990;2023-04-29T01:36:02;100987.66;;;10.11;88.26
78685;BME280;68002;52.310;6.990;2023-04-29T01:38:40;100998.09;;;10.14;88.23
78685;BME280;68002;52.310;6.990;2023-04-29T01:41:15;101001.50;;;10.16;88.60
78685;BME280;68002;52.310;6.990;2023-04-29T01:43:42;101002.31;;;10.17;88.51
78685;BME280;68002;52.310;6.990;2023-04-29T01:46:12;101007.66;;;10.17;88.26
78685;BME280;68002;52.310;6.990;2023-04-29T01:48:40;101007.78;;;10.15;88.20
78685;BME280;68002;52.310;6.990;2023-04-29T01:51:05;101006.94;;;10.14;88.00
78685;BME280;68002;52.310;6.990;2023-04-29T01:53:30;101008.50;;;10.17;88.07
78685;BME280;68002;52.310;6.990;2023-04-29T01:55:55;101012.75;;;10.20;87.90
78685;BME280;68002;52.310;6.990;2023-04-29T01:58:20;101013.00;;;10.17;87.29
78685;BME280;68002;52.310;6.990;2023-04-29T02:00:46;101012.41;;;10.13;87.47
78685;BME280;68002;52.310;6.990;2023-04-29T02:03:11;101015.09;;;10.13;87.83
78685;BME280;68002;52.310;6.990;2023-04-29T02:05:36;101018.03;;;10.10;87.54
78685;BME280;68002;52.310;6.990;2023-04-29T02:08:01;101021.78;;;10.07;88.05
78685;BME280;68002;52.310;6.990;2023-04-29T02:10:27;101028.72;;;10.10;87.46
78685;BME280;68002;52.310;6.990;2023-04-29T02:12:52;101017.19;;;10.09;87.70
78685;BME280;68002;52.310;6.990;2023-04-29T02:15:18;101026.53;;;10.04;88.12
78685;BME280;68002;52.310;6.990;2023-04-29T02:17:43;101023.63;;;10.07;87.78
78685;BME280;68002;52.310;6.990;2023-04-29T02:20:09;101037.63;;;10.10;87.26
78685;BME280;68002;52.310;6.990;2023-04-29T02:22:34;101028.63;;;10.00;87.92
78685;BME280;68002;52.310;6.990;2023-04-29T02:24:59;101041.53;;;9.95;87.84
78685;BME280;68002;52.310;6.990;2023-04-29T02:27:25;101051.72;;;10.01;87.02
78685;BME280;68002;52.310;6.990;2023-04-29T02:29:50;101051.13;;;9.98;87.19
78685;BME280;68002;52.310;6.990;2023-04-29T02:32:15;101051.25;;;9.96;86.94
78685;BME280;68002;52.310;6.990;2023-04-29T02:34:40;101056.50;;;9.98;87.26
78685;BME280;68002;52.310;6.990;2023-04-29T02:37:05;101048.84;;;9.93;86.60
78685;BME280;68002;52.310;6.990;2023-04-29T02:39:31;101060.19;;;9.86;87.54
78685;BME280;68002;52.310;6.990;2023-04-29T02:41:56;101053.00;;;9.86;87.16
78685;BME280;68002;52.310;6.990;2023-04-29T02:44:21;101053.25;;;9.83;86.77
78685;BME280;68002;52.310;6.990;2023-04-29T02:46:47;101060.44;;;9.83;86.57
78685;BME280;68002;52.310;6.990;2023-04-29T02:49:12;101069.28;;;9.83;86.43
78685;BME280;68002;52.310;6.990;2023-04-29T02:51:38;101076.59;;;9.81;86.45
78685;BME280;68002;52.310;6.990;2023-04-29T02:54:03;101080.50;;;9.77;87.12
78685;BME280;68002;52.310;6.990;2023-04-29T02:56:28;101083.38;;;9.85;86.33
78685;BME280;68002;52.310;6.990;2023-04-29T02:58:53;101082.06;;;9.80;87.04
78685;BME280;68002;52.310;6.990;2023-04-29T03:01:18;101090.94;;;9.80;86.76
78685;BME280;68002;52.310;6.990;2023-04-29T03:03:44;101092.63;;;9.81;86.13
78685;BME280;68002;52.310;6.990;2023-04-29T03:06:09;101085.84;;;9.77;87.05
78685;BME280;68002;52.310;6.990;2023-04-29T03:08:34;101096.66;;;9.76;86.77
78685;BME280;68002;52.310;6.990;2023-04-29T03:10:59;101087.22;;;9.72;86.47
78685;BME280;68002;52.310;6.990;2023-04-29T03:13:24;101090.38;;;9.66;86.03
78685;BME280;68002;52.310;6.990;2023-04-29T03:15:50;101106.28;;;9.67;86.01
78685;BME280;68002;52.310;6.990;2023-04-29T03:18:15;101105.44;;;9.67;86.39
78685;BME280;68002;52.310;6.990;2023-04-29T03:20:40;101098.03;;;9.70;86.11
78685;BME280;68002;52.310;6.990;2023-04-29T03:23:06;101112.84;;;9.63;86.98
78685;BME280;68002;52.310;6.990;2023-04-29T03:25:31;101113.09;;;9.60;86.54
78685;BME280;68002;52.310;6.990;2023-04-29T03:27:56;101117.47;;;9.61;86.58
78685;BME280;68002;52.310;6.990;2023-04-29T03:30:21;101111.16;;;9.62;86.37
78685;BME280;68002;52.310;6.990;2023-04-29T03:32:47;101114.31;;;9.56;86.39
78685;BME280;68002;52.310;6.990;2023-04-29T03:35:12;101118.84;;;9.56;86.38
78685;BME280;68002;52.310;6.990;2023-04-29T03:37:37;101114.44;;;9.55;86.02
78685;BME280;68002;52.310;6.990;2023-04-29T03:40:03;101113.00;;;9.51;87.16
78685;BME280;68002;52.310;6.990;2023-04-29T03:42:28;101120.19;;;9.50;86.23
78685;BME280;68002;52.310;6.990;2023-04-29T03:44:53;101119.91;;;9.53;86.54
78685;BME280;68002;52.310;6.990;2023-04-29T03:47:19;101125.53;;;9.50;86.98
78685;BME280;68002;52.310;6.990;2023-04-29T03:49:44;101128.53;;;9.57;86.71
78685;BME280;68002;52.310;6.990;2023-04-29T03:52:09;101131.81;;;9.49;85.95
78685;BME280;68002;52.310;6.990;2023-04-29T03:54:34;101124.94;;;9.47;86.36
78685;BME280;68002;52.310;6.990;2023-04-29T03:56:59;101134.13;;;9.54;86.33
78685;BME280;68002;52.310;6.990;2023-04-29T03:59:25;101130.97;;;9.49;86.79
78685;BME280;68002;52.310;6.990;2023-04-29T04:01:50;101144.09;;;9.52;85.93
78685;BME280;68002;52.310;6.990;2023-04-29T04:04:15;101146.88;;;9.50;86.85
78685;BME280;68002;52.310;6.990;2023-04-29T04:06:40;101141.91;;;9.46;86.47
78685;BME280;68002;52.310;6.990;2023-04-29T04:09:05;101146.03;;;9.50;86.77
78685;BME280;68002;52.310;6.990;2023-04-29T04:11:31;101149.66;;;9.49;86.29
78685;BME280;68002;52.310;6.990;2023-04-29T04:13:56;101148.09;;;9.46;86.99
78685;BME280;68002;52.310;6.990;2023-04-29T04:16:21;101157.94;;;9.46;86.72
78685;BME280;68002;52.310;6.990;2023-04-29T04:18:46;101159.72;;;9.45;87.44
78685;BME280;68002;52.310;6.990;2023-04-29T04:21:12;101161.59;;;9.45;87.50
78685;BME280;68002;52.310;6.990;2023-04-29T04:23:37;101164.97;;;9.47;86.94
78685;BME280;68002;52.310;6.990;2023-04-29T04:26:03;101163.00;;;9.49;86.94
78685;BME280;68002;52.310;6.990;2023-04-29T04:28:28;101171.16;;;9.47;87.27
78685;BME280;68002;52.310;6.990;2023-04-29T04:30:53;101163.72;;;9.51;87.34
78685;BME280;68002;52.310;6.990;2023-04-29T04:33:18;101174.19;;;9.54;86.97
78685;BME280;68002;52.310;6.990;2023-04-29T04:35:44;101178.06;;;9.50;87.31
78685;BME280;68002;52.310;6.990;2023-04-29T04:38:09;101186.69;;;9.53;87.07
78685;BME280;68002;52.310;6.990;2023-04-29T04:40:34;101187.41;;;9.55;87.19
78685;BME280;68002;52.310;6.990;2023-04-29T04:42:59;101196.97;;;9.58;86.31
78685;BME280;68002;52.310;6.990;2023-04-29T04:45:24;101191.03;;;9.54;86.42
78685;BME280;68002;52.310;6.990;2023-04-29T04:47:52;101201.97;;;9.51;86.14
78685;BME280;68002;52.310;6.990;2023-04-29T04:50:17;101197.09;;;9.56;86.12
78685;BME280;68002;52.310;6.990;2023-04-29T04:52:42;101208.78;;;9.55;86.50
78685;BME280;68002;52.310;6.990;2023-04-29T04:55:08;101208.50;;;9.58;86.01
78685;BME280;68002;52.310;6.990;2023-04-29T04:57:33;101209.84;;;9.53;85.98
78685;BME280;68002;52.310;6.990;2023-04-29T04:59:58;101217.75;;;9.54;86.19
78685;BME280;68002;52.310;6.990;2023-04-29T05:02:23;101220.41;;;9.54;86.59
78685;BME280;68002;52.310;6.990;2023-04-29T05:04:48;101227.69;;;9.63;85.98
78685;BME280;68002;52.310;6.990;2023-04-29T05:07:14;101226.84;;;9.63;85.78
78685;BME280;68002;52.310;6.990;2023-04-29T05:09:39;101235.81;;;9.62;85.88
78685;BME280;68002;52.310;6.990;2023-04-29T05:12:04;101229.53;;;9.63;85.31
78685;BME280;68002;52.310;6.990;2023-04-29T05:14:29;101239.09;;;9.54;85.20
78685;BME280;68002;52.310;6.990;2023-04-29T05:16:58;101242.75;;;9.53;85.40
78685;BME280;68002;52.310;6.990;2023-04-29T05:19:23;101241.56;;;9.57;85.99
78685;BME280;68002;52.310;6.990;2023-04-29T05:21:49;101247.84;;;9.56;84.92
78685;BME280;68002;52.310;6.990;2023-04-29T05:24:14;101251.50;;;9.55;85.74
78685;BME280;68002;52.310;6.990;2023-04-29T05:26:39;101247.03;;;9.56;84.97
78685;BME280;68002;52.310;6.990;2023-04-29T05:29:04;101249.78;;;9.54;84.75
78685;BME280;68002;52.310;6.990;2023-04-29T05:31:29;101250.50;;;9.56;85.30
78685;BME280;68002;52.310;6.990;2023-04-29T05:33:55;101249.69;;;9.56;84.93
78685;BME280;68002;52.310;6.990;2023-04-29T05:36:20;101261.06;;;9.58;85.03
78685;BME280;68002;52.310;6.990;2023-04-29T05:38:45;101265.81;;;9.65;83.82
78685;BME280;68002;52.310;6.990;2023-04-29T05:41:11;101270.66;;;9.60;84.20
78685;BME280;68002;52.310;6.990;2023-04-29T05:43:36;101268.38;;;9.56;84.22
78685;BME280;68002;52.310;6.990;2023-04-29T05:46:01;101271.28;;;9.53;83.73
78685;BME280;68002;52.310;6.990;2023-04-29T05:48:26;101280.50;;;9.60;84.41
78685;BME280;68002;52.310;6.990;2023-04-29T05:50:52;101285.75;;;9.61;83.88
78685;BME280;68002;52.310;6.990;2023-04-29T05:53:17;101287.06;;;9.56;83.78
78685;BME280;68002;52.310;6.990;2023-04-29T05:55:42;101291.19;;;9.60;84.06
78685;BME280;68002;52.310;6.990;2023-04-29T05:58:07;101287.78;;;9.58;84.00
78685;BME280;68002;52.310;6.990;2023-04-29T06:00:32;101298.25;;;9.61;83.20
78685;BME280;68002;52.310;6.990;2023-04-29T06:02:58;101297.13;;;9.63;84.14
78685;BME280;68002;52.310;6.990;2023-04-29T06:05:23;101294.22;;;9.66;84.11
78685;BME280;68002;52.310;6.990;2023-04-29T06:07:48;101302.59;;;9.73;84.24
78685;BME280;68002;52.310;6.990;2023-04-29T06:10:13;101311.22;;;9.76;82.96
78685;BME280;68002;52.310;6.990;2023-04-29T06:12:39;101319.47;;;9.84;83.15
78685;BME280;68002;52.310;6.990;2023-04-29T06:15:04;101314.75;;;9.77;82.83
78685;BME280;68002;52.310;6.990;2023-04-29T06:17:29;101325.28;;;9.78;82.13
78685;BME280;68002;52.310;6.990;2023-04-29T06:19:55;101331.03;;;9.85;82.57
78685;BME280;68002;52.310;6.990;2023-04-29T06:22:20;101331.13;;;9.83;81.96
78685;BME280;68002;52.310;6.990;2023-04-29T06:24:45;101333.91;;;9.82;81.86
78685;BME280;68002;52.310;6.990;2023-04-29T06:27:11;101333.31;;;9.78;82.26
78685;BME280;68002;52.310;6.990;2023-04-29T06:29:36;101327.38;;;9.75;82.65
78685;BME280;68002;52.310;6.990;2023-04-29T06:32:01;101337.91;;;9.76;82.40
78685;BME280;68002;52.310;6.990;2023-04-29T06:34:26;101340.38;;;9.79;82.48
78685;BME280;68002;52.310;6.990;2023-04-29T06:36:51;101343.78;;;9.81;81.90
78685;BME280;68002;52.310;6.990;2023-04-29T06:39:17;101352.63;;;9.82;82.60
78685;BME280;68002;52.310;6.990;2023-04-29T06:41:42;101349.22;;;9.80;82.30
78685;BME280;68002;52.310;6.990;2023-04-29T06:44:07;101354.47;;;9.81;82.63
78685;BME280;68002;52.310;6.990;2023-04-29T06:46:32;101356.28;;;9.92;82.03
78685;BME280;68002;52.310;6.990;2023-04-29T06:48:57;101355.06;;;9.96;82.55
78685;BME280;68002;52.310;6.990;2023-04-29T06:51:23;101360.50;;;9.94;81.86
78685;BME280;68002;52.310;6.990;2023-04-29T06:53:48;101360.28;;;9.97;82.16
78685;BME280;68002;52.310;6.990;2023-04-29T06:56:13;101362.94;;;10.08;81.73
78685;BME280;68002;52.310;6.990;2023-04-29T06:58:38;101367.69;;;10.05;81.62
78685;BME280;68002;52.310;6.990;2023-04-29T07:01:04;101382.16;;;10.13;81.39
78685;BME280;68002;52.310;6.990;2023-04-29T07:03:29;101385.19;;;10.20;81.48
78685;BME280;68002;52.310;6.990;2023-04-29T07:05:54;101387.16;;;10.18;80.61
78685;BME280;68002;52.310;6.990;2023-04-29T07:08:19;101396.25;;;10.27;80.75
78685;BME280;68002;52.310;6.990;2023-04-29T07:10:53;101400.13;;;10.34;80.80
78685;BME280;68002;52.310;6.990;2023-04-29T07:13:18;101402.44;;;10.38;81.00
78685;BME280;68002;52.310;6.990;2023-04-29T07:15:43;101404.00;;;10.41;80.08
78685;BME280;68002;52.310;6.990;2023-04-29T07:18:08;101405.44;;;10.45;79.91
78685;BME280;68002;52.310;6.990;2023-04-29T07:20:35;101412.13;;;10.50;80.28
78685;BME280;68002;52.310;6.990;2023-04-29T07:23:01;101413.59;;;10.54;79.98
78685;BME280;68002;52.310;6.990;2023-04-29T07:25:26;101421.97;;;10.50;79.37
78685;BME280;68002;52.310;6.990;2023-04-29T07:27:51;101412.13;;;10.50;79.80
78685;BME280;68002;52.310;6.990;2023-04-29T07:30:16;101422.34;;;10.56;79.26
78685;BME280;68002;52.310;6.990;2023-04-29T07:32:41;101424.50;;;10.62;78.57
78685;BME280;68002;52.310;6.990;2023-04-29T07:35:07;101425.75;;;10.58;78.58
78685;BME280;68002;52.310;6.990;2023-04-29T07:37:32;101429.97;;;10.61;78.60
78685;BME280;68002;52.310;6.990;2023-04-29T07:39:57;101422.81;;;10.61;79.15
78685;BME280;68002;52.310;6.990;2023-04-29T07:42:23;101430.34;;;10.67;78.90
78685;BME280;68002;52.310;6.990;2023-04-29T07:44:48;101428.72;;;10.76;79.14
78685;BME280;68002;52.310;6.990;2023-04-29T07:47:13;101437.31;;;10.90;79.58
78685;BME280;68002;52.310;6.990;2023-04-29T07:49:38;101443.63;;;11.00;78.54
78685;BME280;68002;52.310;6.990;2023-04-29T07:52:04;101452.97;;;11.06;78.10
78685;BME280;68002;52.310;6.990;2023-04-29T07:54:29;101453.94;;;11.05;77.88
78685;BME280;68002;52.310;6.990;2023-04-29T07:56:57;101450.03;;;11.09;77.69
78685;BME280;68002;52.310;6.990;2023-04-29T07:59:22;101460.47;;;11.12;76.88
78685;BME280;68002;52.310;6.990;2023-04-29T08:01:47;101469.97;;;11.16;77.21
78685;BME280;68002;52.310;6.990;2023-04-29T08:04:12;101476.03;;;11.18;76.99
78685;BME280;68002;52.310;6.990;2023-04-29T08:06:38;101472.88;;;11.24;75.70
78685;BME280;68002;52.310;6.990;2023-04-29T08:09:03;101475.19;;;11.18;76.20
78685;BME280;68002;52.310;6.990;2023-04-29T08:11:28;101482.59;;;11.25;76.01
78685;BME280;68002;52.310;6.990;2023-04-29T08:13:53;101484.75;;;11.31;76.09
78685;BME280;68002;52.310;6.990;2023-04-29T08:16:18;101484.84;;;11.41;75.67
78685;BME280;68002;52.310;6.990;2023-04-29T08:18:44;101491.03;;;11.41;75.99
78685;BME280;68002;52.310;6.990;2023-04-29T08:21:09;101497.56;;;11.48;76.00
78685;BME280;68002;52.310;6.990;2023-04-29T08:23:34;101502.63;;;11.62;75.94
78685;BME280;68002;52.310;6.990;2023-04-29T08:25:59;101500.66;;;11.75;74.88
78685;BME280;68002;52.310;6.990;2023-04-29T08:28:25;101496.19;;;11.85;74.20
78685;BME280;68002;52.310;6.990;2023-04-29T08:30:50;101502.22;;;11.98;73.34
78685;BME280;68002;52.310;6.990;2023-04-29T08:33:15;101507.50;;;11.89;72.78
78685;BME280;68002;52.310;6.990;2023-04-29T08:35:41;101504.88;;;11.98;73.64
78685;BME280;68002;52.310;6.990;2023-04-29T08:38:07;101496.25;;;12.16;74.22
78685;BME280;68002;52.310;6.990;2023-04-29T08:40:41;101499.28;;;12.32;71.67
78685;BME280;68002;52.310;6.990;2023-04-29T08:43:07;101508.34;;;12.40;72.48
78685;BME280;68002;52.310;6.990;2023-04-29T08:45:33;101508.53;;;12.48;71.77
78685;BME280;68002;52.310;6.990;2023-04-29T08:48:00;101515.91;;;12.56;71.67
78685;BME280;68002;52.310;6.990;2023-04-29T08:50:26;101512.84;;;12.70;72.34
78685;BME280;68002;52.310;6.990;2023-04-29T08:52:52;101506.97;;;12.95;70.23
78685;BME280;68002;52.310;6.990;2023-04-29T08:55:17;101516.31;;;13.00;70.43
78685;BME280;68002;52.310;6.990;2023-04-29T08:57:43;101513.28;;;13.15;69.46
78685;BME280;68002;52.310;6.990;2023-04-29T09:00:10;101516.56;;;13.37;69.29
78685;BME280;68002;52.310;6.990;2023-04-29T09:02:44;101517.28;;;13.68;67.81
78685;BME280;68002;52.310;6.990;2023-04-29T09:05:10;101518.59;;;14.20;69.42
78685;BME280;68002;52.310;6.990;2023-04-29T09:07:36;101522.94;;;14.40;66.58
78685;BME280;68002;52.310;6.990;2023-04-29T09:10:03;101517.47;;;14.68;66.36
78685;BME280;68002;52.310;6.990;2023-04-29T09:12:29;101513.59;;;14.98;65.15
78685;BME280;68002;52.310;6.990;2023-04-29T09:14:55;101510.06;;;14.97;62.76
78685;BME280;68002;52.310;6.990;2023-04-29T09:17:37;101528.44;;;15.29;64.24
78685;BME280;68002;52.310;6.990;2023-04-29T09:22:52;101545.59;;;15.55;59.68
78685;BME280;68002;52.310;6.990;2023-04-29T09:25:17;101533.75;;;15.21;59.60
78685;BME280;68002;52.310;6.990;2023-04-29T09:27:43;101543.84;;;15.19;60.12
78685;BME280;68002;52.310;6.990;2023-04-29T09:30:08;101544.72;;;15.55;61.02
78685;BME280;68002;52.310;6.990;2023-04-29T09:32:34;101538.38;;;15.99;61.62
78685;BME280;68002;52.310;6.990;2023-04-29T09:35:25;101542.28;;;16.22;57.79
78685;BME280;68002;52.310;6.990;2023-04-29T09:38:12;101548.56;;;16.05;55.33
78685;BME280;68002;52.310;6.990;2023-04-29T09:40:37;101548.41;;;16.06;57.13
78685;BME280;68002;52.310;6.990;2023-04-29T09:43:02;101548.50;;;16.23;56.02
78685;BME280;68002;52.310;6.990;2023-04-29T09:45:38;101555.56;;;16.41;56.43
78685;BME280;68002;52.310;6.990;2023-04-29T09:48:05;101551.34;;;16.64;54.13
78685;BME280;68002;52.310;6.990;2023-04-29T09:50:34;101549.63;;;16.97;54.60
78685;BME280;68002;52.310;6.990;2023-04-29T09:52:59;101548.06;;;17.28;54.68
78685;BME280;68002;52.310;6.990;2023-04-29T09:55:25;101549.81;;;17.53;53.15
78685;BME280;68002;52.310;6.990;2023-04-29T09:57:50;101548.47;;;17.65;51.94
78685;BME280;68002;52.310;6.990;2023-04-29T10:00:15;101555.59;;;17.82;49.78
78685;BME280;68002;52.310;6.990;2023-04-29T10:02:41;101550.16;;;18.31;50.63
78685;BME280;68002;52.310;6.990;2023-04-29T10:05:08;101557.28;;;18.24;47.82
78685;BME280;68002;52.310;6.990;2023-04-29T10:07:34;101551.16;;;18.30;46.65
78685;BME280;68002;52.310;6.990;2023-04-29T10:10:00;101555.91;;;18.52;48.93
78685;BME280;68002;52.310;6.990;2023-04-29T10:12:28;101548.03;;;19.20;47.32
78685;BME280;68002;52.310;6.990;2023-04-29T10:17:43;101552.09;;;19.77;44.77
78685;BME280;68002;52.310;6.990;2023-04-29T10:20:13;101553.69;;;20.31;40.58
78685;BME280;68002;52.310;6.990;2023-04-29T10:22:46;101562.63;;;20.40;40.83
78685;BME280;68002;52.310;6.990;2023-04-29T10:25:18;101553.63;;;20.39;40.30
78685;BME280;68002;52.310;6.990;2023-04-29T10:27:44;101547.09;;;20.26;40.53
78685;BME280;68002;52.310;6.990;2023-04-29T10:30:14;101552.41;;;20.56;40.06
78685;BME280;68002;52.310;6.990;2023-04-29T10:32:40;101546.31;;;20.69;40.70
78685;BME280;68002;52.310;6.990;2023-04-29T10:35:07;101557.19;;;20.40;40.33
78685;BME280;68002;52.310;6.990;2023-04-29T10:37:33;101550.81;;;19.87;41.04
78685;BME280;68002;52.310;6.990;2023-04-29T10:40:10;101552.94;;;19.24;41.76
78685;BME280;68002;52.310;6.990;2023-04-29T10:50:30;101557.59;;;17.48;46.46
78685;BME280;68002;52.310;6.990;2023-04-29T10:52:56;101557.28;;;17.59;46.42
78685;BME280;68002;52.310;6.990;2023-04-29T10:55:22;101556.25;;;18.17;46.69
78685;BME280;68002;52.310;6.990;2023-04-29T10:57:48;101556.94;;;18.35;44.25
78685;BME280;68002;52.310;6.990;2023-04-29T11:00:28;101551.81;;;18.64;44.25
78685;BME280;68002;52.310;6.990;2023-04-29T11:02:55;101544.00;;;18.77;44.03
78685;BME280;68002;52.310;6.990;2023-04-29T11:05:31;101542.69;;;18.95;43.08
78685;BME280;68002;52.310;6.990;2023-04-29T11:08:14;101556.50;;;18.86;41.33
78685;BME280;68002;52.310;6.990;2023-04-29T11:10:43;101553.50;;;18.65;42.63
78685;BME280;68002;52.310;6.990;2023-04-29T11:13:26;101563.53;;;18.40;43.13
78685;BME280;68002;52.310;6.990;2023-04-29T11:15:53;101562.53;;;18.41;42.82
78685;BME280;68002;52.310;6.990;2023-04-29T11:18:28;101559.66;;;18.35;43.47
78685;BME280;68002;52.310;6.990;2023-04-29T11:23:33;101555.72;;;19.08;41.52
78685;BME280;68002;52.310;6.990;2023-04-29T11:25:58;101544.50;;;19.11;42.77
78685;BME280;68002;52.310;6.990;2023-04-29T11:28:26;101552.06;;;19.24;42.21
78685;BME280;68002;52.310;6.990;2023-04-29T11:30:52;101555.22;;;19.04;42.06
78685;BME280;68002;52.310;6.990;2023-04-29T11:33:19;101566.91;;;18.58;42.33
78685;BME280;68002;52.310;6.990;2023-04-29T11:35:44;101573.88;;;18.37;43.82
78685;BME280;68002;52.310;6.990;2023-04-29T11:38:10;101570.50;;;18.11;43.76
78685;BME280;68002;52.310;6.990;2023-04-29T11:40:40;101552.03;;;18.06;44.08
78685;BME280;68002;52.310;6.990;2023-04-29T11:43:06;101567.38;;;18.70;43.97
78685;BME280;68002;52.310;6.990;2023-04-29T11:45:34;101571.38;;;18.90;41.80
78685;BME280;68002;52.310;6.990;2023-04-29T11:47:59;101562.19;;;18.52;41.96
78685;BME280;68002;52.310;6.990;2023-04-29T11:50:24;101587.75;;;18.09;43.28
78685;BME280;68002;52.310;6.990;2023-04-29T11:52:50;101576.88;;;17.53;44.60
78685;BME280;68002;52.310;6.990;2023-04-29T11:55:15;101580.16;;;17.31;44.93
78685;BME280;68002;52.310;6.990;2023-04-29T11:57:40;101578.91;;;17.67;46.38
78685;BME280;68002;52.310;6.990;2023-04-29T12:00:10;101568.28;;;18.54;44.71
78685;BME280;68002;52.310;6.990;2023-04-29T12:02:35;101570.75;;;19.19;43.72
78685;BME280;68002;52.310;6.990;2023-04-29T12:05:07;101571.19;;;19.30;40.57
78685;BME280;68002;52.310;6.990;2023-04-29T12:07:33;101574.06;;;18.98;39.34
78685;BME280;68002;52.310;6.990;2023-04-29T12:09:58;101571.59;;;18.72;41.11
78685;BME280;68002;52.310;6.990;2023-04-29T12:12:23;101578.13;;;18.47;41.63
78685;BME280;68002;52.310;6.990;2023-04-29T12:14:49;101581.16;;;18.52;42.42
78685;BME280;68002;52.310;6.990;2023-04-29T12:17:15;101583.84;;;18.44;41.55
78685;BME280;68002;52.310;6.990;2023-04-29T12:19:40;101574.72;;;18.21;42.14
78685;BME280;68002;52.310;6.990;2023-04-29T12:22:06;101572.72;;;18.07;42.68
78685;BME280;68002;52.310;6.990;2023-04-29T12:24:38;101570.44;;;18.59;42.80
78685;BME280;68002;52.310;6.990;2023-04-29T12:27:07;101571.84;;;19.40;41.98
78685;BME280;68002;52.310;6.990;2023-04-29T12:29:34;101573.25;;;20.04;41.12
78685;BME280;68002;52.310;6.990;2023-04-29T12:32:00;101577.44;;;20.52;39.93
78685;BME280;68002;52.310;6.990;2023-04-29T12:34:30;101568.56;;;21.02;38.62
78685;BME280;68002;52.310;6.990;2023-04-29T12:36:58;101569.56;;;21.15;36.73
78685;BME280;68002;52.310;6.990;2023-04-29T12:39:24;101568.59;;;21.37;36.69
78685;BME280;68002;52.310;6.990;2023-04-29T12:41:54;101572.38;;;21.57;37.59
78685;BME280;68002;52.310;6.990;2023-04-29T12:44:19;101559.13;;;21.33;34.96
78685;BME280;68002;52.310;6.990;2023-04-29T12:46:44;101572.59;;;20.62;36.55
78685;BME280;68002;52.310;6.990;2023-04-29T12:49:10;101574.78;;;20.07;37.59
78685;BME280;68002;52.310;6.990;2023-04-29T12:51:35;101572.56;;;19.34;39.38
78685;BME280;68002;52.310;6.990;2023-04-29T12:54:01;101574.66;;;19.16;40.67
78685;BME280;68002;52.310;6.990;2023-04-29T12:56:26;101569.34;;;19.61;40.43
78685;BME280;68002;52.310;6.990;2023-04-29T12:58:52;101567.06;;;20.33;40.24
78685;BME280;68002;52.310;6.990;2023-04-29T13:01:17;101577.91;;;20.99;38.23
78685;BME280;68002;52.310;6.990;2023-04-29T13:03:42;101558.75;;;21.36;37.15
78685;BME280;68002;52.310;6.990;2023-04-29T13:06:08;101554.75;;;21.74;36.40
78685;BME280;68002;52.310;6.990;2023-04-29T13:08:33;101556.91;;;22.21;36.12
78685;BME280;68002;52.310;6.990;2023-04-29T13:10:58;101567.81;;;22.00;33.59
78685;BME280;68002;52.310;6.990;2023-04-29T13:13:23;101569.75;;;21.14;35.28
78685;BME280;68002;52.310;6.990;2023-04-29T13:15:48;101572.47;;;20.70;36.69